Track Тайманов Александр

Time Latitude Longitude Accuracy (66% radius in meters) Altitude (meters) Speed (km/hour) Bearing (degrees) Battery (%) GPS flag
09:53:30 55.737915 37.299005 10 176 0 354.20297241211 80 1 delete
09:53:17 55.737915 37.299005 5 174 0 354.20297241211 80 1 delete
09:53:05 55.737913 37.299004 5 181 0 18.238265991211 80 1 delete
09:52:51 55.737913 37.299004 10 177 0 18.238265991211 80 1 delete
09:52:39 55.737913 37.299004 5 165 0 18.238265991211 80 1 delete
09:52:27 55.737913 37.299004 5 179 0 18.238265991211 80 1 delete
09:52:14 55.737912 37.299003 10 176 0 345.02099609375 80 1 delete
09:52:02 55.737883 37.298997 5 176 0 350.13537597656 80 1 delete
09:51:50 55.737875 37.298998 10 176 0 145.71319580078 80 1 delete
09:51:37 55.737875 37.298998 5 178 0 145.71319580078 80 1 delete
09:51:25 55.737874 37.298997 5 177 0 145.71319580078 80 1 delete
09:51:13 55.737874 37.298997 5 172 0 145.71319580078 80 1 delete
09:51:01 55.737878 37.298996 10 171 0 145.71319580078 80 1 delete
09:50:56 55.737878 37.298996 5 177 0 145.71319580078 80 1 delete
09:50:48 55.737880 37.299004 10 172 0 324.84118652344 80 1 delete
09:50:36 55.737878 37.299007 10 180 0 324.84118652344 80 1 delete
09:50:24 55.737875 37.299013 5 175 0 324.84118652344 80 1 delete
09:50:12 55.737874 37.299016 5 173 0 324.84118652344 80 1 delete
09:49:59 55.737874 37.299016 5 165 0 324.84118652344 80 1 delete
09:49:47 55.737881 37.299022 5 169 0 345.06970214844 80 1 delete
09:49:35 55.737881 37.299022 5 177 0 345.06970214844 80 1 delete
09:49:23 55.737877 37.299029 5 166 0 151.07582092285 80 1 delete
09:49:10 55.737877 37.299029 5 165 0 151.07582092285 80 1 delete
09:48:58 55.737877 37.299029 5 165 0 151.07582092285 80 1 delete
09:48:46 55.737877 37.299029 5 167 0 151.07582092285 80 1 delete
09:48:33 55.737877 37.299029 5 171 0 151.07582092285 80 1 delete
09:48:21 55.737877 37.299029 5 169 0 151.07582092285 80 1 delete
09:48:08 55.737877 37.299029 5 170 0 151.07582092285 80 1 delete
09:47:56 55.737877 37.299029 5 176 0 151.07582092285 80 1 delete
09:47:44 55.737877 37.299031 10 171 0 151.07582092285 80 1 delete
09:47:32 55.737877 37.299031 5 172 0 151.07582092285 80 1 delete
09:47:19 55.737877 37.299031 5 161 0 151.07582092285 80 1 delete
09:47:07 55.737877 37.299031 5 169 0 151.07582092285 80 1 delete
09:46:55 55.737879 37.299027 5 189 0 22.507051467896 80 1 delete
09:46:42 55.737878 37.299026 10 190 0 22.507051467896 80 1 delete
09:46:30 55.737873 37.299026 5 175 0 181.74670410156 80 1 delete
09:46:18 55.737873 37.299026 5 165 0.30336621403694 181.74670410156 80 1 delete
09:46:04 55.737882 37.299032 5 169 0 164.80236816406 80 1 delete
09:45:52 55.737885 37.299032 10 171 0 133.4418182373 80 1 delete
09:45:40 55.737886 37.299033 10 174 0 133.4418182373 80 1 delete
09:45:27 55.737886 37.299033 5 181 0 133.4418182373 80 1 delete
09:45:15 55.737886 37.299033 10 173 0 133.4418182373 80 1 delete
09:45:03 55.737886 37.299033 5 173 0 133.4418182373 80 1 delete
09:44:50 55.737886 37.299033 5 168 0 133.4418182373 80 1 delete
09:44:38 55.737887 37.299028 5 169 0 109.09057617188 80 1 delete
09:44:26 55.737887 37.299028 5 180 0 109.09057617188 80 1 delete
09:44:14 55.737887 37.299028 10 173 0 109.09057617188 80 1 delete
09:44:02 55.737887 37.299028 10 178 0 109.09057617188 80 1 delete
09:43:49 55.737887 37.299028 5 163 0 109.09057617188 80 1 delete
09:43:37 55.737887 37.299027 10 151 0 109.09057617188 80 1 delete